Holstein, IA (51025)

12:08 PM CDT on September 22, 2014 (GMT -0500)
Oxendales Arthur, IA | Change Station
CLOSE
Current Station
Personal Weather Station
Location: Arthur, IA
Elevation: 1496 ft
Nearby Weather Stations

Elev 1496 ft 42.28 °N, 95.36 °W | Updated 27 seconds ago

Clear
Clear
68.5 °F
Feels Like 68.5 °F
N
5.1
Wind Variable Wind from SW
Gusts 5.1 mph

Today
High -- | Low -- °F
--% Chance of Precip.
Yesterday
High -- | Low -- °F
Precip. -- in
7:09 AM 7:19 PM
Waning Crescent, 2% visible
Pressure 30.29 in
Visibility 10.0 miles
Clouds Clear
Dew Point 52 °F
Humidity 55%
Rainfall 0.00 in
Snow Depth Not available.
UV 6 out of 12
Pollen 5.00 out of 12
Air Quality Not available.
Flu Activity Not available.
METAR KCKP 221655Z AUTO 20006KT 10SM CLR 19/11 A3029 RMK AO2 T01920112

More Conditions Fewer Conditions

Pressure 30.29 in
Visibility 10.0 miles
Clouds Clear
Dew Point 52 °F
Humidity 55%
Rainfall 0.00 in
Snow Depth Not available.
UV 6 out of 12
Pollen 5.00 out of 12
Air Quality Not available.
Flu Activity Not available.
METAR KCKP 221655Z AUTO 20006KT 10SM CLR 19/11 A3029 RMK AO2 T01920112

More Conditions Fewer Conditions

10-Day Weather Forecast

Almanac

Astronomy

Sep. 22, 2014 Rise Set
Actual Time 7:09 AM CDT 7:19 PM CDT
Civil Twilight 6:41 AM CDT 7:47 PM CDT
Nautical Twilight 6:08 AM CDT 8:20 PM CDT
Astronomical Twilight 5:34 AM CDT 8:53 PM CDT
Moon 5:37 AM CDT 6:28 PM CDT
Length of Visible Light 13h 05m
Length of Day
12h 09m
Tomorrow will be 2m 52s shorter.
Waning Crescent, 2% of the Moon is Illuminated
Today
Waning Crescent
Sep 24
New
Oct 1
First Quarter
Oct 8
Full
Oct 15
Last Quarter

Today's Extremes

State Highs State Lows

Community

WunderPhotos

Upload Photos

1,755,487 photos uploaded!

WunderBlogs® & News

Nearby

Snow Depth

Station Depth Elevation
No new snow has been reported.

Earthquake Activity

City Distance Mag. Time & Date
No recent earthquake activity has been reported nearby.
Minimum magnitude displayed is 2.5.

Coastal Water Temperatures

Place Temperature
No Stations Reporting

Nearby Weather Stations